Time;durP1;ratioP1;P1;durP2;ratioP2;P2;SDS_P1;SDS_P2;PMS_P1;PMS_P2;Temp;Humidity;BMP_temperature;BMP_pressure;BME280_temperature;BME280_humidity;BME280_pressure;Samples;Min_cycle;Max_cycle;Signal;HPM_P1;HPM_P2
2021/10/07 00:01:06;;;;;;;20.70;14.20;;;;;;;13.82;72.04;99646.02;236202;1194;139164;-60
2021/10/07 00:06:26;;;;;;;20.70;13.90;;;;;;;13.84;72.26;99645.55;235510;1195;140516;-62
2021/10/07 00:11:30;;;;;;;16.80;14.00;;;;;;;13.86;72.21;99646.09;235804;1195;139795;-63
2021/10/07 00:16:33;;;;;;;18.60;14.10;;;;;;;13.87;72.11;99645.30;236266;1195;138934;-69
2021/10/07 00:21:36;;;;;;;21.20;13.50;;;;;;;13.89;72.25;99643.96;236083;1195;139175;-60
2021/10/07 00:26:45;;;;;;;14.90;12.20;;;;;;;13.89;72.20;99647.52;236248;1194;139111;-68
2021/10/07 00:31:52;;;;;;;18.50;11.60;;;;;;;13.89;72.10;99645.20;236210;1195;141030;-69
2021/10/07 00:42:01;;;;;;;18.00;13.10;;;;;;;13.88;72.23;99640.59;235930;1195;138616;-65
2021/10/07 00:47:07;;;;;;;20.50;12.30;;;;;;;13.86;72.15;99642.38;235509;1195;138686;-65
2021/10/07 00:52:15;;;;;;;15.80;11.80;;;;;;;13.82;72.13;99641.23;235345;1195;138992;-66
2021/10/07 00:57:19;;;;;;;15.00;11.30;;;;;;;13.80;72.31;99645.26;235865;1196;140010;-65
2021/10/07 01:02:22;;;;;;;15.30;12.10;;;;;;;13.82;72.28;99647.59;236186;1195;139704;-61
2021/10/07 01:07:27;;;;;;;17.80;13.40;;;;;;;13.86;72.33;99649.36;235942;1194;143731;-64
2021/10/07 01:12:30;;;;;;;14.90;12.40;;;;;;;13.85;72.43;99646.34;236160;1195;141062;-60
2021/10/07 01:17:33;;;;;;;14.70;12.50;;;;;;;13.82;72.37;99646.77;236298;1193;139139;-72
2021/10/07 01:22:36;;;;;;;19.70;12.40;;;;;;;13.79;72.20;99645.34;236560;1193;140987;-64
2021/10/07 01:27:39;;;;;;;18.80;13.40;;;;;;;13.80;72.35;99645.96;235878;1193;140120;-62
2021/10/07 01:32:43;;;;;;;17.50;13.70;;;;;;;13.81;72.41;99647.87;235565;1195;138521;-64
2021/10/07 01:37:46;;;;;;;20.20;14.50;;;;;;;13.82;72.47;99651.55;236486;1194;138881;-63
2021/10/07 01:42:50;;;;;;;24.50;16.60;;;;;;;13.83;72.48;99652.57;236408;1194;140733;-62
2021/10/07 01:47:53;;;;;;;26.70;16.60;;;;;;;13.83;72.35;99654.55;236186;1194;141691;-62
2021/10/07 01:52:57;;;;;;;28.20;19.90;;;;;;;13.86;72.51;99655.77;236005;1195;139446;-62
2021/10/07 01:58:00;;;;;;;32.50;21.40;;;;;;;13.89;72.66;99658.91;236372;1195;138843;-61
2021/10/07 02:03:03;;;;;;;31.90;22.20;;;;;;;13.91;72.52;99658.10;236175;1194;138776;-62
2021/10/07 02:08:06;;;;;;;31.00;22.30;;;;;;;13.89;72.42;99660.91;236481;1194;139928;-61
2021/10/07 02:13:10;;;;;;;33.00;22.90;;;;;;;13.84;72.38;99660.88;236275;1194;139691;-61
2021/10/07 02:18:13;;;;;;;35.30;23.00;;;;;;;13.81;72.37;99656.23;235770;1195;139820;-61
2021/10/07 02:23:16;;;;;;;34.50;24.40;;;;;;;13.80;72.50;99657.92;236186;1195;138654;-61
2021/10/07 02:28:19;;;;;;;37.00;24.40;;;;;;;13.83;72.80;99663.77;236405;1187;138647;-62
2021/10/07 02:33:22;;;;;;;33.70;21.90;;;;;;;13.84;72.63;99662.13;236693;1193;140260;-66
2021/10/07 02:38:25;;;;;;;35.60;19.80;;;;;;;13.80;72.54;99666.89;236522;1194;139552;-64
2021/10/07 02:43:28;;;;;;;26.70;19.60;;;;;;;13.73;72.72;99665.86;236324;1195;139346;-63
2021/10/07 02:48:34;;;;;;;27.90;19.90;;;;;;;13.76;73.09;99671.20;236182;1195;138762;-61
2021/10/07 02:53:38;;;;;;;30.50;20.70;;;;;;;13.83;73.13;99679.50;236197;1195;139759;-68
2021/10/07 02:58:41;;;;;;;27.70;18.80;;;;;;;13.89;73.25;99686.05;236352;1195;140093;-62
2021/10/07 03:03:44;;;;;;;25.70;19.00;;;;;;;13.94;73.15;99682.85;236409;1194;139675;-67
2021/10/07 03:08:47;;;;;;;27.40;18.70;;;;;;;14.02;73.22;99683.23;236210;1193;139827;-62
2021/10/07 03:13:50;;;;;;;25.30;17.50;;;;;;;14.08;73.04;99688.73;236064;1195;138864;-62
2021/10/07 03:18:53;;;;;;;24.90;16.90;;;;;;;14.10;73.07;99692.70;236016;1195;138969;-62
2021/10/07 03:23:56;;;;;;;26.00;16.10;;;;;;;14.10;72.96;99698.39;235203;1195;139345;-63
2021/10/07 03:28:59;;;;;;;25.60;16.50;;;;;;;14.10;72.84;99702.89;236376;1194;140449;-62
2021/10/07 03:34:03;;;;;;;26.20;17.90;;;;;;;14.11;73.06;99703.73;236369;1194;139742;-62
2021/10/07 03:39:06;;;;;;;25.10;18.20;;;;;;;14.11;72.90;99706.73;236344;1195;139098;-62
2021/10/07 03:44:09;;;;;;;26.90;18.30;;;;;;;14.10;72.87;99710.05;236170;1195;139624;-61
2021/10/07 03:49:12;;;;;;;20.70;16.50;;;;;;;14.07;72.81;99716.63;236242;1195;141406;-59
2021/10/07 03:54:16;;;;;;;21.20;15.80;;;;;;;14.04;72.79;99720.58;236223;1195;140348;-64
2021/10/07 03:59:19;;;;;;;23.80;16.70;;;;;;;14.03;72.71;99728.88;236293;1195;139692;-63
2021/10/07 04:04:22;;;;;;;24.90;18.40;;;;;;;14.01;72.78;99729.35;236539;1195;139215;-62
2021/10/07 04:09:25;;;;;;;27.30;17.60;;;;;;;14.01;72.93;99733.64;236534;1193;139137;-66
2021/10/07 04:14:28;;;;;;;83.80;56.70;;;;;;;14.02;72.92;99741.61;236444;1193;138775;-64
2021/10/07 04:19:31;;;;;;;22.90;16.20;;;;;;;14.06;73.02;99748.11;236233;1194;139601;-62
2021/10/07 04:24:34;;;;;;;26.20;17.80;;;;;;;14.10;73.02;99746.75;236226;1194;140016;-63
2021/10/07 04:29:37;;;;;;;346.70;269.60;;;;;;;14.13;72.95;99746.91;236079;1194;139263;-65
2021/10/07 04:34:40;;;;;;;30.00;22.30;;;;;;;14.19;73.00;99757.76;236372;1195;139280;-64
2021/10/07 04:39:43;;;;;;;29.50;18.80;;;;;;;14.17;72.71;99757.74;236295;1195;138615;-63
2021/10/07 04:44:46;;;;;;;26.20;18.30;;;;;;;14.13;72.61;99761.40;236025;1194;141285;-67
2021/10/07 04:49:49;;;;;;;25.80;19.20;;;;;;;14.10;72.72;99766.23;236290;1195;140379;-67
2021/10/07 04:54:52;;;;;;;27.10;19.60;;;;;;;14.08;72.50;99777.09;236313;1195;138902;-67
2021/10/07 04:59:56;;;;;;;26.10;19.90;;;;;;;14.03;72.76;99781.46;236226;1193;139192;-65
2021/10/07 05:04:59;;;;;;;24.20;17.50;;;;;;;13.98;72.65;99780.20;236138;1195;138879;-64
2021/10/07 05:10:02;;;;;;;27.00;17.70;;;;;;;13.94;72.58;99786.70;236565;1195;140101;-63
2021/10/07 05:15:06;;;;;;;23.80;18.60;;;;;;;13.90;72.49;99784.77;236048;1194;139256;-65
2021/10/07 05:20:09;;;;;;;21.40;16.90;;;;;;;13.88;72.73;99795.08;236133;1194;138523;-66
2021/10/07 05:25:12;;;;;;;23.80;16.20;;;;;;;13.86;72.68;99791.64;236109;1195;142154;-66
2021/10/07 05:30:15;;;;;;;19.30;13.90;;;;;;;13.88;72.73;99795.66;236306;1195;139628;-67
2021/10/07 05:35:18;;;;;;;16.10;13.40;;;;;;;13.87;72.34;99796.27;236133;1195;139624;-66
2021/10/07 05:40:22;;;;;;;21.50;15.80;;;;;;;13.84;72.43;99800.39;236457;1193;139814;-66
2021/10/07 05:45:25;;;;;;;27.90;20.70;;;;;;;13.81;72.32;99798.39;236138;1189;138763;-69
2021/10/07 05:50:28;;;;;;;23.40;18.80;;;;;;;13.76;72.26;99797.29;236195;1187;139081;-68
2021/10/07 05:55:31;;;;;;;22.20;16.20;;;;;;;13.71;72.41;99803.98;236256;1195;139050;-67
2021/10/07 06:00:34;;;;;;;24.20;16.30;;;;;;;13.71;72.26;99808.15;236157;1195;140727;-67
2021/10/07 06:05:39;;;;;;;23.40;17.00;;;;;;;13.70;72.17;99807.31;236026;1195;140681;-68
2021/10/07 06:10:42;;;;;;;28.30;17.30;;;;;;;13.70;72.34;99806.58;236281;1195;138892;-65
2021/10/07 06:15:45;;;;;;;25.70;18.30;;;;;;;13.71;72.32;99804.06;236260;1195;138925;-68
2021/10/07 06:20:48;;;;;;;25.10;17.30;;;;;;;13.67;72.16;99809.60;236398;1194;139576;-63
2021/10/07 06:25:51;;;;;;;25.30;16.70;;;;;;;13.70;72.27;99816.20;235992;1193;139741;-66
2021/10/07 06:30:54;;;;;;;29.20;18.60;;;;;;;13.72;72.39;99820.56;236444;1195;139818;-66
2021/10/07 06:35:58;;;;;;;27.20;18.60;;;;;;;13.71;72.20;99820.58;236539;1195;138950;-66
2021/10/07 06:41:01;;;;;;;28.30;18.90;;;;;;;13.70;72.29;99830.84;236407;1195;138838;-64
2021/10/07 06:46:05;;;;;;;25.80;18.20;;;;;;;13.67;72.19;99832.23;236257;1194;138803;-66
2021/10/07 06:51:11;;;;;;;26.60;16.80;;;;;;;13.63;72.14;99836.45;236423;1193;139038;-66
2021/10/07 06:56:14;;;;;;;26.00;16.70;;;;;;;13.61;72.01;99836.20;235727;1194;139775;-67
2021/10/07 07:01:17;;;;;;;25.10;17.60;;;;;;;13.60;72.08;99838.41;236241;1194;139580;-67
2021/10/07 07:06:22;;;;;;;26.10;17.50;;;;;;;13.61;72.04;99844.25;235168;1195;139033;-64
2021/10/07 07:11:27;;;;;;;29.00;18.10;;;;;;;13.59;72.04;99858.44;235934;1195;139012;-65
2021/10/07 07:16:30;;;;;;;29.50;17.10;;;;;;;13.56;72.00;99861.65;235650;1196;138808;-68
2021/10/07 07:21:33;;;;;;;21.50;15.20;;;;;;;13.51;71.89;99864.83;236443;1194;139196;-67
2021/10/07 07:26:39;;;;;;;28.40;19.90;;;;;;;13.48;71.88;99863.75;236422;1195;139497;-69
2021/10/07 07:31:42;;;;;;;49.10;32.80;;;;;;;13.53;72.20;99872.00;236284;1195;141149;-69
2021/10/07 07:36:46;;;;;;;26.30;17.00;;;;;;;13.61;72.07;99872.95;236064;1195;138924;-69
2021/10/07 07:41:49;;;;;;;24.70;16.70;;;;;;;13.62;71.94;99876.63;236170;1195;138737;-65
2021/10/07 07:46:53;;;;;;;26.40;16.40;;;;;;;13.67;71.94;99880.95;236355;1193;138731;-69
2021/10/07 07:51:56;;;;;;;26.50;14.80;;;;;;;13.66;71.91;99879.58;236398;1193;139150;-70
2021/10/07 07:56:59;;;;;;;27.10;14.30;;;;;;;13.71;71.79;99888.74;236341;1194;139775;-70
2021/10/07 08:02:03;;;;;;;21.10;14.80;;;;;;;13.74;71.93;99891.61;236246;1195;139373;-66
2021/10/07 08:07:06;;;;;;;30.90;16.20;;;;;;;13.77;71.85;99897.27;235769;1195;138902;-69
2021/10/07 08:12:13;;;;;;;27.70;15.50;;;;;;;13.81;71.77;99902.73;236250;1194;139029;-70
2021/10/07 08:17:16;;;;;;;25.50;17.60;;;;;;;13.81;71.74;99897.09;235913;1195;139953;-64
2021/10/07 08:22:21;;;;;;;21.70;16.00;;;;;;;13.82;71.71;99905.60;235926;1195;138862;-69
2021/10/07 08:27:26;;;;;;;27.30;17.70;;;;;;;13.82;71.78;99913.01;236442;1193;139405;-69
2021/10/07 08:32:30;;;;;;;27.40;18.70;;;;;;;13.90;71.68;99913.08;235891;1194;139659;-67
2021/10/07 08:37:34;;;;;;;30.30;19.80;;;;;;;13.94;71.79;99911.04;235775;1195;139606;-67
2021/10/07 08:42:38;;;;;;;30.70;20.40;;;;;;;13.98;71.72;99912.21;236042;1195;138516;-69
2021/10/07 08:47:44;;;;;;;28.80;20.40;;;;;;;13.99;71.65;99912.69;236091;1193;138339;-67
2021/10/07 08:52:47;;;;;;;26.30;18.30;;;;;;;14.03;71.74;99907.49;236330;1193;139085;-62
2021/10/07 08:57:50;;;;;;;26.70;16.50;;;;;;;14.09;71.79;99909.77;235762;1193;139386;-63
2021/10/07 09:02:56;;;;;;;451.50;306.30;;;;;;;14.17;71.93;99907.45;236436;1194;139069;-63
2021/10/07 09:08:05;;;;;;;28.90;20.70;;;;;;;14.36;72.02;99903.59;236016;1195;139208;-70
2021/10/07 09:13:12;;;;;;;27.40;18.80;;;;;;;14.43;71.75;99907.23;236409;1195;139222;-64
2021/10/07 09:18:18;;;;;;;25.10;17.60;;;;;;;14.50;71.59;99907.39;236223;1194;139519;-71
2021/10/07 09:23:32;;;;;;;23.80;15.40;;;;;;;14.56;71.54;99907.34;236347;1195;138915;-64
2021/10/07 09:28:51;;;;;;;33.20;15.60;;;;;;;14.65;71.39;99913.36;236301;1193;141272;-65
2021/10/07 09:34:04;;;;;;;40.90;16.40;;;;;;;14.72;71.32;99914.11;236409;1194;139259;-70
2021/10/07 09:39:09;;;;;;;19.10;14.40;;;;;;;14.82;71.24;99919.38;236432;1194;138880;-63
2021/10/07 09:44:12;;;;;;;33.10;15.40;;;;;;;14.86;71.09;99915.39;236230;1195;138753;-68
2021/10/07 09:49:17;;;;;;;19.00;14.10;;;;;;;14.85;71.00;99914.19;236412;1193;139517;-70
2021/10/07 09:54:30;;;;;;;17.40;12.50;;;;;;;14.81;70.74;99917.67;236303;1193;141410;-66
2021/10/07 09:59:33;;;;;;;34.60;13.70;;;;;;;14.82;70.57;99913.70;235864;1194;139515;-63
2021/10/07 10:04:37;;;;;;;42.30;34.40;;;;;;;14.91;70.82;99919.01;236160;1194;139311;-64
2021/10/07 10:09:41;;;;;;;25.20;16.10;;;;;;;15.05;71.08;99913.61;236512;1194;139951;-68
2021/10/07 10:14:47;;;;;;;22.10;12.60;;;;;;;15.18;70.85;99912.92;235540;1195;140686;-66
2021/10/07 10:19:52;;;;;;;27.20;12.70;;;;;;;15.24;70.47;99912.52;236334;1193;139197;-62
2021/10/07 10:24:59;;;;;;;14.00;11.00;;;;;;;15.38;70.75;99908.86;236420;1193;138838;-61
2021/10/07 10:30:19;;;;;;;17.60;11.70;;;;;;;15.51;70.27;99904.39;236385;1194;140113;-62
2021/10/07 10:35:37;;;;;;;15.00;10.60;;;;;;;15.62;70.11;99902.75;236374;1195;139164;-67
2021/10/07 10:40:41;;;;;;;17.70;10.70;;;;;;;15.72;69.92;99901.05;235884;1195;139361;-67
2021/10/07 10:46:01;;;;;;;24.90;11.40;;;;;;;15.75;69.59;99900.10;236314;1195;139740;-65
2021/10/07 10:51:09;;;;;;;19.00;11.10;;;;;;;15.83;69.64;99900.41;236348;1194;138705;-64
2021/10/07 10:56:14;;;;;;;16.10;11.00;;;;;;;15.95;69.57;99901.90;236355;1195;139913;-67
2021/10/07 11:01:17;;;;;;;17.00;10.50;;;;;;;16.07;69.55;99901.44;236357;1195;139681;-71
2021/10/07 11:06:20;;;;;;;21.30;10.00;;;;;;;16.15;68.97;99900.36;236216;1193;140073;-69
2021/10/07 11:11:36;;;;;;;19.10;10.40;;;;;;;16.18;68.51;99902.07;236175;1195;142879;-62
2021/10/07 11:16:45;;;;;;;18.30;9.90;;;;;;;16.20;68.29;99901.58;236382;1193;138846;-63
2021/10/07 11:22:05;;;;;;;95.70;61.10;;;;;;;16.20;67.64;99892.46;235939;1193;139146;-69
2021/10/07 11:27:08;;;;;;;17.00;10.70;;;;;;;16.25;67.70;99891.04;236177;1194;138884;-67
2021/10/07 11:32:13;;;;;;;20.10;9.50;;;;;;;16.27;67.17;99893.92;236292;1194;140175;-66
2021/10/07 11:37:19;;;;;;;17.90;9.60;;;;;;;16.30;66.87;99895.83;236327;1194;139082;-66
2021/10/07 11:42:37;;;;;;;16.00;8.90;;;;;;;16.33;66.47;99889.34;236325;1194;139118;-68
2021/10/07 11:47:40;;;;;;;15.80;9.10;;;;;;;16.40;66.05;99892.25;236137;1194;138610;-66
2021/10/07 11:52:43;;;;;;;14.80;7.90;;;;;;;16.51;65.95;99898.63;236344;1194;139622;-71
2021/10/07 11:57:52;;;;;;;13.40;8.70;;;;;;;16.56;65.56;99904.85;236276;1194;138058;-65
2021/10/07 12:03:24;;;;;;;12.70;8.60;;;;;;;16.59;65.12;99904.28;236267;1195;138988;-63
2021/10/07 12:08:34;;;;;;;15.30;7.80;;;;;;;16.59;64.85;99908.45;236473;1193;141123;-63
2021/10/07 12:13:43;;;;;;;12.10;7.60;;;;;;;16.56;64.46;99906.00;236490;1193;138955;-68
2021/10/07 12:18:50;;;;;;;14.50;8.70;;;;;;;16.48;63.91;99903.30;236415;1193;139134;-63
2021/10/07 12:24:01;;;;;;;16.60;8.00;;;;;;;16.38;63.51;99909.41;236158;1195;138326;-70
2021/10/07 12:29:14;;;;;;;14.50;7.70;;;;;;;16.29;63.57;99905.95;235939;1195;138675;-63
2021/10/07 12:34:18;;;;;;;12.10;7.50;;;;;;;16.20;63.37;99911.39;236431;1193;138961;-62
2021/10/07 12:39:26;;;;;;;15.10;8.70;;;;;;;16.09;63.08;99913.25;236538;1194;138736;-63
2021/10/07 12:44:52;;;;;;;16.00;7.90;;;;;;;16.22;64.31;99913.82;236400;1194;138657;-63
2021/10/07 12:50:16;;;;;;;16.50;8.30;;;;;;;16.31;63.60;99919.59;236415;1193;139694;-65
2021/10/07 12:55:19;;;;;;;17.50;8.00;;;;;;;17.13;66.79;99936.02;236155;1194;139311;-67
2021/10/07 13:00:27;;;;;;;15.40;7.30;;;;;;;18.01;66.35;99940.08;236451;1193;139119;-65
2021/10/07 13:05:36;;;;;;;12.20;7.10;;;;;;;18.79;65.24;99943.15;236060;1195;139051;-64
2021/10/07 13:10:46;;;;;;;12.70;6.60;;;;;;;19.19;63.74;99949.81;236432;1193;139200;-66
2021/10/07 13:15:49;;;;;;;10.20;6.00;;;;;;;19.45;62.77;99950.10;236394;1195;139695;-67
2021/10/07 13:20:52;;;;;;;24.70;15.90;;;;;;;19.59;61.67;99957.02;236256;1194;138912;-64
2021/10/07 13:25:55;;;;;;;24.80;13.30;;;;;;;19.31;60.10;99955.04;236226;1195;139137;-70
2021/10/07 13:31:00;;;;;;;16.00;9.70;;;;;;;19.14;60.08;99963.38;236245;1195;138903;-69
2021/10/07 13:36:04;;;;;;;15.40;7.00;;;;;;;19.00;59.74;99963.05;236087;1193;138612;-63
2021/10/07 13:41:08;;;;;;;45.00;39.50;;;;;;;18.86;59.13;99965.45;236038;1195;139440;-64
2021/10/07 13:46:11;;;;;;;24.80;8.60;;;;;;;18.67;59.22;99965.30;236228;1193;139339;-63
2021/10/07 13:51:14;;;;;;;16.90;6.50;;;;;;;18.32;57.28;99974.40;236308;1195;139858;-70
2021/10/07 13:56:18;;;;;;;15.30;6.10;;;;;;;17.66;56.43;99979.58;235931;1195;139664;-64
2021/10/07 14:01:22;;;;;;;13.80;5.30;;;;;;;17.15;56.43;99981.08;236005;1194;138796;-68
2021/10/07 14:06:25;;;;;;;58.80;35.70;;;;;;;16.75;56.71;99985.09;236269;1195;138999;-63
2021/10/07 14:11:28;;;;;;;44.00;24.40;;;;;;;16.50;57.14;99987.36;236080;1189;139200;-63
2021/10/07 14:16:31;;;;;;;24.00;8.30;;;;;;;16.38;57.65;99992.33;236333;1193;139019;-63
2021/10/07 14:21:35;;;;;;;13.80;6.30;;;;;;;16.16;56.91;99992.41;236261;1194;138649;-64
2021/10/07 14:26:38;;;;;;;19.40;6.60;;;;;;;15.96;57.19;99997.77;236129;1195;139449;-68
2021/10/07 14:31:41;;;;;;;16.60;5.60;;;;;;;15.78;57.02;99993.45;235786;1195;138852;-64
2021/10/07 14:36:45;;;;;;;17.90;6.10;;;;;;;15.62;56.96;99992.18;236014;1195;139415;-64
2021/10/07 14:41:48;;;;;;;16.70;6.10;;;;;;;15.49;57.19;99991.67;236282;1195;139270;-67
2021/10/07 14:46:51;;;;;;;17.20;6.20;;;;;;;15.39;57.28;99999.50;236302;1195;138526;-63
2021/10/07 14:51:55;;;;;;;19.50;6.70;;;;;;;15.29;57.13;99999.08;236528;1194;138602;-69
2021/10/07 14:56:58;;;;;;;25.50;6.80;;;;;;;15.19;57.21;99997.23;236310;1194;138591;-63
2021/10/07 15:02:02;;;;;;;31.40;14.40;;;;;;;15.16;57.51;99999.34;236531;1193;138648;-65
2021/10/07 15:07:07;;;;;;;20.70;6.90;;;;;;;15.13;57.46;99999.73;236070;1195;139465;-68
2021/10/07 15:12:10;;;;;;;17.50;6.40;;;;;;;15.08;57.49;100005.64;236379;1194;138773;-64
2021/10/07 15:17:13;;;;;;;19.20;6.30;;;;;;;15.02;57.37;100009.42;236304;1195;139753;-68
2021/10/07 15:22:17;;;;;;;19.30;6.80;;;;;;;15.17;59.07;100015.57;236463;1193;138908;-61
2021/10/07 15:27:22;;;;;;;16.50;5.70;;;;;;;16.43;62.22;100017.55;236397;1193;139267;-64
2021/10/07 15:32:25;;;;;;;19.80;7.00;;;;;;;17.43;61.25;100019.51;235628;1193;139543;-62
2021/10/07 15:37:28;;;;;;;17.90;5.70;;;;;;;18.02;59.97;100027.63;236058;1194;140008;-64
2021/10/07 15:42:31;;;;;;;21.30;5.80;;;;;;;18.33;58.93;100024.48;236297;1195;139304;-62
2021/10/07 15:47:35;;;;;;;18.50;6.60;;;;;;;18.46;57.94;100031.58;235929;1195;138746;-61
2021/10/07 15:52:38;;;;;;;15.50;5.90;;;;;;;18.51;57.50;100033.31;236258;1194;139855;-62
2021/10/07 15:57:42;;;;;;;14.60;6.60;;;;;;;18.49;56.96;100037.39;236160;1195;139423;-61
2021/10/07 16:02:46;;;;;;;21.10;6.60;;;;;;;18.48;56.89;100043.98;235485;1193;139248;-61
2021/10/07 16:07:49;;;;;;;19.00;6.80;;;;;;;18.49;56.61;100041.56;236054;1195;139175;-63
2021/10/07 16:12:52;;;;;;;17.50;7.20;;;;;;;18.28;55.40;100054.48;236248;1194;139218;-67
2021/10/07 16:18:00;;;;;;;20.80;8.00;;;;;;;17.64;54.30;100060.65;236416;1195;138907;-65
2021/10/07 16:23:05;;;;;;;24.60;7.40;;;;;;;16.93;54.07;100066.02;235948;1195;138878;-64
2021/10/07 16:28:08;;;;;;;43.90;27.00;;;;;;;16.41;54.65;100068.98;236133;1195;139088;-64
2021/10/07 16:33:13;;;;;;;20.80;7.70;;;;;;;16.10;55.18;100071.27;236414;1193;139532;-64
2021/10/07 16:38:16;;;;;;;16.70;7.70;;;;;;;15.75;55.20;100072.74;236176;1193;138883;-62
2021/10/07 16:43:20;;;;;;;194.50;114.80;;;;;;;15.48;55.56;100068.10;236236;1195;139188;-63
2021/10/07 16:48:24;;;;;;;65.90;32.80;;;;;;;15.33;56.06;100072.98;236095;1193;139710;-63
2021/10/07 16:53:32;;;;;;;25.60;9.30;;;;;;;15.21;56.08;100079.86;236395;1193;139110;-64
2021/10/07 16:58:37;;;;;;;25.20;9.40;;;;;;;15.02;56.26;100081.05;236081;1194;139361;-61
2021/10/07 17:03:41;;;;;;;21.60;8.70;;;;;;;14.88;56.40;100084.13;236427;1194;139399;-63
2021/10/07 17:08:44;;;;;;;24.40;10.30;;;;;;;14.75;56.61;100084.91;236392;1193;139484;-63
2021/10/07 17:13:48;;;;;;;30.80;13.00;;;;;;;14.62;56.71;100091.46;235834;1195;139463;-65
2021/10/07 17:18:52;;;;;;;339.80;193.10;;;;;;;14.54;57.12;100091.20;236165;1193;139383;-64
2021/10/07 17:23:55;;;;;;;38.20;15.00;;;;;;;14.54;57.10;100093.90;235621;1195;140048;-63
2021/10/07 17:28:58;;;;;;;29.60;9.70;;;;;;;14.45;56.89;100090.66;236512;1193;139138;-64
2021/10/07 17:34:03;;;;;;;24.90;8.90;;;;;;;14.33;56.86;100093.56;236624;1193;139212;-68
2021/10/07 17:39:06;;;;;;;28.50;8.40;;;;;;;14.19;56.73;100102.96;236327;1195;138957;-64
2021/10/07 17:44:10;;;;;;;27.50;9.50;;;;;;;14.05;56.65;100110.59;236097;1195;138883;-64
2021/10/07 17:49:13;;;;;;;26.40;8.50;;;;;;;13.93;56.65;100108.78;236424;1193;139913;-64
2021/10/07 17:54:16;;;;;;;27.10;9.70;;;;;;;13.81;56.75;100113.39;236380;1193;139019;-64
2021/10/07 17:59:19;;;;;;;329.50;181.00;;;;;;;13.72;57.04;100119.27;236475;1193;139707;-60
2021/10/07 18:04:22;;;;;;;39.60;13.20;;;;;;;13.75;57.57;100115.01;236503;1193;140333;-61
2021/10/07 18:09:25;;;;;;;34.70;9.20;;;;;;;13.67;57.12;100117.98;236533;1193;141640;-63
2021/10/07 18:14:28;;;;;;;26.10;8.20;;;;;;;13.57;57.13;100114.98;236417;1193;139826;-66
2021/10/07 18:19:32;;;;;;;27.70;8.20;;;;;;;13.48;57.15;100118.50;236532;1193;139544;-65
2021/10/07 18:24:35;;;;;;;31.30;7.50;;;;;;;13.38;57.15;100122.13;236412;1193;139057;-64
2021/10/07 18:29:38;;;;;;;162.50;104.90;;;;;;;13.30;57.26;100119.39;236194;1193;139053;-63
2021/10/07 18:34:41;;;;;;;37.00;11.90;;;;;;;13.26;57.54;100118.68;235905;1195;139313;-61
2021/10/07 18:39:47;;;;;;;34.80;8.90;;;;;;;13.19;57.45;100120.14;236190;1195;138880;-67
2021/10/07 18:44:50;;;;;;;;;;;;;;;13.11;57.46;100121.80;236196;1195;139325;-64
2021/10/07 18:49:53;;;;;;;35.60;12.70;;;;;;;13.05;57.65;100120.68;236479;1195;125199;-65
2021/10/07 18:54:56;;;;;;;29.90;9.70;;;;;;;12.97;57.63;100120.59;236382;1193;139446;-62
2021/10/07 18:59:59;;;;;;;30.10;8.90;;;;;;;12.87;57.59;100120.41;235724;1194;139695;-63
2021/10/07 19:05:04;;;;;;;33.50;8.20;;;;;;;12.80;57.54;100118.48;236276;1194;139357;-62
2021/10/07 19:10:09;;;;;;;28.40;7.60;;;;;;;12.73;57.57;100121.16;236340;1195;139325;-61
2021/10/07 19:15:12;;;;;;;29.90;8.20;;;;;;;12.67;57.43;100121.35;236366;1193;138795;-64
2021/10/07 19:20:16;;;;;;;32.90;8.00;;;;;;;12.59;57.69;100121.56;236468;1194;139040;-63
2021/10/07 19:25:20;;;;;;;28.20;8.80;;;;;;;12.49;57.37;100118.20;236491;1193;139749;-61
2021/10/07 19:30:23;;;;;;;25.70;7.60;;;;;;;12.43;57.43;100116.53;236414;1193;139005;-63
2021/10/07 19:35:26;;;;;;;31.60;8.30;;;;;;;12.39;57.70;100122.25;236186;1195;139236;-63
2021/10/07 19:40:31;;;;;;;26.70;7.80;;;;;;;12.36;57.59;100126.19;236066;1195;138985;-62
2021/10/07 19:45:34;;;;;;;28.70;7.90;;;;;;;12.32;57.56;100129.92;236265;1193;140255;-61
2021/10/07 19:50:37;;;;;;;22.90;8.60;;;;;;;12.30;57.60;100127.20;236340;1193;139535;-61
2021/10/07 19:55:43;;;;;;;38.90;8.70;;;;;;;12.27;57.68;100123.78;236097;1195;139283;-62
2021/10/07 20:00:46;;;;;;;32.20;8.60;;;;;;;12.24;57.81;100122.89;236380;1194;139152;-64
2021/10/07 20:05:49;;;;;;;35.00;9.70;;;;;;;12.19;57.91;100129.88;236381;1193;139089;-61
2021/10/07 20:10:52;;;;;;;30.40;9.90;;;;;;;12.12;57.72;100127.93;236299;1195;138806;-68
2021/10/07 20:15:56;;;;;;;37.00;10.20;;;;;;;12.07;58.03;100124.81;236663;1193;139792;-63
2021/10/07 20:21:00;;;;;;;212.10;123.30;;;;;;;12.03;58.24;100121.81;236472;1193;139137;-63
2021/10/07 20:26:03;;;;;;;41.60;14.50;;;;;;;12.14;58.78;100123.74;236374;1194;139875;-65
2021/10/07 20:31:10;;;;;;;36.50;11.00;;;;;;;12.09;58.32;100128.98;236426;1193;139988;-65
2021/10/07 20:41:38;;;;;;;32.30;11.50;;;;;;;11.89;58.16;100139.63;236081;1195;140164;-62
2021/10/07 20:46:41;;;;;;;31.70;11.30;;;;;;;11.80;58.11;100138.95;236194;1194;139084;-65
2021/10/07 20:51:44;;;;;;;30.10;10.20;;;;;;;11.71;58.23;100136.18;236317;1195;139415;-63
2021/10/07 20:56:49;;;;;;;31.60;10.50;;;;;;;11.63;58.37;100136.59;236383;1193;139868;-65
2021/10/07 21:01:52;;;;;;;31.70;10.60;;;;;;;11.55;58.34;100140.84;236271;1187;138751;-67
2021/10/07 21:06:55;;;;;;;26.90;10.70;;;;;;;11.47;58.32;100138.04;236346;1193;139533;-61
2021/10/07 21:11:59;;;;;;;29.30;10.90;;;;;;;11.42;58.47;100147.02;236324;1195;139513;-64
2021/10/07 21:17:07;;;;;;;33.00;11.30;;;;;;;11.36;58.36;100148.34;236065;1195;139319;-63
2021/10/07 21:22:12;;;;;;;31.00;10.70;;;;;;;11.30;58.47;100145.27;236504;1195;140064;-64
2021/10/07 21:27:16;;;;;;;28.80;10.50;;;;;;;11.23;58.32;100145.79;236070;1193;139760;-68
2021/10/07 21:32:20;;;;;;;;;;;;;;;11.18;58.31;100149.02;236064;1195;138943;-68
2021/10/07 21:37:24;;;;;;;26.50;10.60;;;;;;;11.10;58.33;100150.27;236437;1193;125442;-61
2021/10/07 21:42:28;;;;;;;218.70;128.40;;;;;;;11.04;58.27;100148.08;236539;1193;139273;-59
2021/10/07 21:47:32;;;;;;;34.90;13.90;;;;;;;11.05;58.34;100154.20;236505;1194;139460;-63
2021/10/07 21:52:35;;;;;;;25.10;11.80;;;;;;;11.01;58.02;100150.70;235951;1195;139422;-61
2021/10/07 21:57:41;;;;;;;30.40;11.10;;;;;;;10.91;57.92;100148.84;236575;1195;140072;-66
2021/10/07 22:02:48;;;;;;;30.20;10.70;;;;;;;10.84;58.31;100155.36;235952;1195;139586;-62
2021/10/07 22:07:59;;;;;;;22.90;11.10;;;;;;;10.78;58.24;100159.73;235166;1195;139617;-62
2021/10/07 22:13:19;;;;;;;24.60;10.50;;;;;;;10.71;58.37;100159.50;235567;1195;140732;-64
2021/10/07 22:18:23;;;;;;;29.80;11.10;;;;;;;10.63;57.82;100163.74;235409;1195;139732;-63
2021/10/07 22:26:00;;;;;;;29.40;10.80;;;;;;;10.59;57.93;100161.66;232766;1212;656341;-61
2021/10/07 22:31:35;;;;;;;34.20;10.90;;;;;;;10.47;57.91;100165.36;234379;1201;137676;-61
2021/10/07 22:36:41;;;;;;;25.20;9.80;;;;;;;10.41;58.10;100177.14;235286;1201;137782;-62
2021/10/07 22:41:51;;;;;;;25.60;10.80;;;;;;;10.34;58.06;100173.74;234796;1200;138215;-62
2021/10/07 22:46:54;;;;;;;21.60;10.80;;;;;;;10.29;57.88;100170.95;235232;1199;137973;-59
2021/10/07 22:51:57;;;;;;;24.40;10.70;;;;;;;10.24;58.30;100173.06;235139;1198;138814;-61
2021/10/07 22:57:00;;;;;;;26.00;10.80;;;;;;;10.18;58.26;100172.05;235596;1198;139616;-63
2021/10/07 23:02:03;;;;;;;26.10;10.80;;;;;;;10.13;58.13;100174.38;235451;1197;138710;-59